Time;durP1;ratioP1;P1;durP2;ratioP2;P2;SDS_P1;SDS_P2;PMS_P1;PMS_P2;Temp;Humidity;BMP_temperature;BMP_pressure;BME280_temperature;BME280_humidity;BME280_pressure;Samples;Min_cycle;Max_cycle;Signal;HPM_P1;HPM_P2
2021/06/20 00:01:54;;;;;;;4.45;2.35;;;;;;;;;;5053212;28;20213;-66
2021/06/20 00:04:19;;;;;;;6.10;2.38;;;;;;;;;;5070888;28;20027;-66
2021/06/20 00:06:49;;;;;;;7.53;2.77;;;;;;;;;;5063128;28;20029;-65
2021/06/20 00:09:14;;;;;;;9.07;2.63;;;;;;;;;;5056797;28;20263;-65
2021/06/20 00:11:41;;;;;;;5.50;2.33;;;;;;;;;;5070948;28;20283;-66
2021/06/20 00:14:06;;;;;;;11.25;2.45;;;;;;;;;;5069719;28;20537;-66
2021/06/20 00:16:32;;;;;;;5.75;2.58;;;;;;;;;;5070259;28;20123;-66
2021/06/20 00:18:58;;;;;;;9.57;2.40;;;;;;;;;;5070317;28;20034;-66
2021/06/20 00:21:23;;;;;;;7.40;2.42;;;;;;;;;;5070647;28;20024;-66
2021/06/20 00:23:49;;;;;;;5.80;2.40;;;;;;;;;;5069981;28;20538;-65
2021/06/20 00:26:14;;;;;;;5.47;2.17;;;;;;;;;;5069783;28;20459;-66
2021/06/20 00:28:40;;;;;;;6.35;2.03;;;;;;;;;;5070175;28;20031;-65
2021/06/20 00:31:05;;;;;;;5.85;1.83;;;;;;;;;;5070199;28;20025;-66
2021/06/20 00:33:30;;;;;;;9.77;2.40;;;;;;;;;;5062399;28;20020;-65
2021/06/20 00:35:57;;;;;;;9.10;2.37;;;;;;;;;;5069737;28;20321;-65
2021/06/20 00:38:22;;;;;;;6.82;1.88;;;;;;;;;;5069804;28;20259;-65
2021/06/20 00:40:48;;;;;;;11.37;1.73;;;;;;;;;;5065044;28;20024;-66
2021/06/20 00:43:13;;;;;;;3.40;1.60;;;;;;;;;;5070213;28;20671;-66
2021/06/20 00:45:39;;;;;;;4.55;1.67;;;;;;;;;;5070094;28;20016;-65
2021/06/20 00:48:05;;;;;;;11.15;2.30;;;;;;;;;;5067019;28;20544;-66
2021/06/20 00:50:30;;;;;;;7.28;1.20;;;;;;;;;;5066157;28;20024;-65
2021/06/20 00:52:56;;;;;;;5.10;1.60;;;;;;;;;;5069779;28;20197;-66
2021/06/20 00:55:21;;;;;;;3.30;1.45;;;;;;;;;;5069206;28;20043;-66
2021/06/20 00:57:46;;;;;;;4.43;1.23;;;;;;;;;;5070398;28;20012;-64
2021/06/20 01:00:12;;;;;;;15.55;2.25;;;;;;;;;;5069945;28;20025;-64
2021/06/20 01:02:37;;;;;;;6.57;1.95;;;;;;;;;;5069348;28;20074;-66
2021/06/20 01:05:07;;;;;;;2.67;0.98;;;;;;;;;;5068551;28;20102;-66
2021/06/20 01:07:32;;;;;;;5.05;1.50;;;;;;;;;;5069683;28;20046;-66
2021/06/20 01:09:57;;;;;;;8.05;2.03;;;;;;;;;;5070103;28;20559;-65
2021/06/20 01:12:23;;;;;;;5.37;1.70;;;;;;;;;;5067995;28;20031;-67
2021/06/20 01:14:48;;;;;;;7.65;2.05;;;;;;;;;;5063728;28;20251;-66
2021/06/20 01:17:15;;;;;;;11.82;2.38;;;;;;;;;;5069708;28;20032;-67
2021/06/20 01:19:41;;;;;;;3.80;1.75;;;;;;;;;;5069410;28;20517;-66
2021/06/20 01:22:25;;;;;;;9.63;2.72;;;;;;;;;;5068801;28;20105;-66
2021/06/20 01:24:52;;;;;;;8.55;2.10;;;;;;;;;;5069207;28;20012;-65
2021/06/20 01:27:17;;;;;;;8.70;2.25;;;;;;;;;;5069357;28;20024;-65
2021/06/20 01:29:47;;;;;;;10.25;2.60;;;;;;;;;;5069189;28;20021;-66
2021/06/20 01:32:13;;;;;;;13.60;2.78;;;;;;;;;;5069876;28;20103;-66
2021/06/20 01:34:38;;;;;;;8.65;3.08;;;;;;;;;;5067368;28;20021;-65
2021/06/20 01:37:08;;;;;;;6.00;2.07;;;;;;;;;;5068684;28;20029;-66
2021/06/20 01:39:33;;;;;;;4.90;2.73;;;;;;;;;;5069347;28;20266;-66
2021/06/20 01:41:58;;;;;;;7.00;2.63;;;;;;;;;;5067281;28;20263;-65
2021/06/20 01:44:23;;;;;;;8.63;3.28;;;;;;;;;;5064457;28;20025;-66
2021/06/20 01:46:49;;;;;;;8.10;2.60;;;;;;;;;;5069771;28;20039;-66
2021/06/20 01:49:14;;;;;;;8.80;1.98;;;;;;;;;;5051431;28;20026;-66
2021/06/20 01:51:41;;;;;;;11.33;2.70;;;;;;;;;;5072969;28;20143;-66
2021/06/20 01:54:06;;;;;;;12.60;2.95;;;;;;;;;;5073689;28;20028;-65
2021/06/20 01:56:32;;;;;;;12.00;3.17;;;;;;;;;;5072537;28;20433;-65
2021/06/20 01:58:57;;;;;;;15.10;3.30;;;;;;;;;;5073071;28;20298;-64
2021/06/20 02:01:22;;;;;;;9.10;2.70;;;;;;;;;;5072294;28;20436;-66
2021/06/20 02:03:47;;;;;;;10.57;3.17;;;;;;;;;;5073028;28;20044;-66
2021/06/20 02:06:12;;;;;;;15.67;2.60;;;;;;;;;;5072578;28;20452;-65
2021/06/20 02:08:37;;;;;;;8.73;2.27;;;;;;;;;;5072865;28;20290;-66
2021/06/20 02:11:03;;;;;;;14.67;3.80;;;;;;;;;;5072259;28;20275;-65
2021/06/20 02:13:29;;;;;;;15.48;3.10;;;;;;;;;;5072949;28;20436;-66
2021/06/20 02:15:54;;;;;;;8.35;2.70;;;;;;;;;;5058361;28;20491;-65
2021/06/20 02:18:19;;;;;;;12.40;3.58;;;;;;;;;;5072765;28;20062;-65
2021/06/20 02:20:45;;;;;;;10.75;3.60;;;;;;;;;;5072299;28;20487;-65
2021/06/20 02:23:11;;;;;;;12.23;3.63;;;;;;;;;;5072580;28;20036;-65
2021/06/20 02:25:37;;;;;;;12.90;4.32;;;;;;;;;;5072457;28;20107;-65
2021/06/20 02:28:02;;;;;;;17.50;3.22;;;;;;;;;;5072072;28;20106;-65
2021/06/20 02:30:27;;;;;;;12.75;2.58;;;;;;;;;;5072043;28;20490;-65
2021/06/20 02:32:53;;;;;;;17.08;3.45;;;;;;;;;;5073265;28;20324;-66
2021/06/20 02:35:19;;;;;;;9.40;3.95;;;;;;;;;;5072480;28;20021;-65
2021/06/20 02:37:45;;;;;;;14.98;3.67;;;;;;;;;;5072612;28;20099;-65
2021/06/20 02:40:11;;;;;;;9.52;3.40;;;;;;;;;;5072184;28;20112;-65
2021/06/20 02:42:36;;;;;;;19.88;5.78;;;;;;;;;;5071750;28;20115;-64
2021/06/20 02:45:04;;;;;;;13.90;3.53;;;;;;;;;;5070827;28;20066;-65
2021/06/20 02:47:29;;;;;;;15.07;3.83;;;;;;;;;;5072556;28;20123;-65
2021/06/20 02:49:54;;;;;;;14.23;3.78;;;;;;;;;;5071855;28;20117;-65
2021/06/20 02:52:19;;;;;;;30.00;4.97;;;;;;;;;;5071431;28;20237;-65
2021/06/20 02:54:51;;;;;;;23.67;4.30;;;;;;;;;;5071768;28;20350;-64
2021/06/20 02:57:20;;;;;;;14.10;3.17;;;;;;;;;;5070541;28;20105;-65
2021/06/20 02:59:45;;;;;;;20.43;4.50;;;;;;;;;;5071257;28;20504;-66
2021/06/20 03:02:10;;;;;;;22.10;4.38;;;;;;;;;;5070825;28;20103;-65
2021/06/20 03:04:35;;;;;;;13.47;4.17;;;;;;;;;;5071684;28;20090;-64
2021/06/20 03:07:01;;;;;;;13.17;5.03;;;;;;;;;;5072523;28;20024;-65
2021/06/20 03:09:26;;;;;;;18.73;4.03;;;;;;;;;;5070711;28;20607;-65
2021/06/20 03:11:51;;;;;;;19.63;4.83;;;;;;;;;;5071550;28;20029;-65
2021/06/20 03:14:16;;;;;;;22.25;4.70;;;;;;;;;;5065761;28;20263;-65
2021/06/20 03:16:43;;;;;;;14.65;4.63;;;;;;;;;;5066840;28;20490;-65
2021/06/20 03:19:08;;;;;;;22.10;5.35;;;;;;;;;;5071777;28;20497;-65
2021/06/20 03:21:33;;;;;;;21.13;5.38;;;;;;;;;;5071449;28;20095;-66
2021/06/20 03:23:59;;;;;;;17.23;4.32;;;;;;;;;;5071491;28;20021;-66
2021/06/20 03:26:25;;;;;;;19.80;4.63;;;;;;;;;;5070945;28;20032;-65
2021/06/20 03:28:50;;;;;;;16.10;4.70;;;;;;;;;;5071778;28;20028;-64
2021/06/20 03:31:17;;;;;;;17.33;3.77;;;;;;;;;;5071199;28;20036;-65
2021/06/20 03:33:43;;;;;;;15.98;4.68;;;;;;;;;;5071062;28;20267;-66
2021/06/20 03:36:08;;;;;;;19.42;5.05;;;;;;;;;;5071014;28;20360;-65
2021/06/20 03:38:33;;;;;;;12.87;4.60;;;;;;;;;;5071012;28;20039;-65
2021/06/20 03:40:59;;;;;;;24.38;5.32;;;;;;;;;;5063180;28;20028;-65
2021/06/20 03:43:24;;;;;;;21.98;5.22;;;;;;;;;;5067660;28;20036;-65
2021/06/20 03:45:49;;;;;;;20.40;5.60;;;;;;;;;;5071180;28;20044;-65
2021/06/20 03:48:14;;;;;;;14.50;5.93;;;;;;;;;;5070562;28;20038;-65
2021/06/20 03:50:39;;;;;;;18.00;6.20;;;;;;;;;;5070215;28;20426;-65
2021/06/20 03:53:04;;;;;;;14.60;6.33;;;;;;;;;;5070684;28;20016;-65
2021/06/20 03:55:30;;;;;;;15.30;5.57;;;;;;;;;;5069704;28;20255;-65
2021/06/20 03:57:55;;;;;;;9.32;5.43;;;;;;;;;;5070550;28;20621;-66
2021/06/20 04:00:20;;;;;;;11.50;4.05;;;;;;;;;;5070691;28;20028;-66
2021/06/20 04:02:45;;;;;;;12.63;4.30;;;;;;;;;;5070009;28;20284;-65
2021/06/20 04:05:14;;;;;;;12.52;4.47;;;;;;;;;;5069614;28;20271;-65
2021/06/20 04:07:39;;;;;;;11.57;3.78;;;;;;;;;;5065451;28;20055;-66
2021/06/20 04:10:04;;;;;;;9.93;4.13;;;;;;;;;;5062792;28;20486;-66
2021/06/20 04:12:30;;;;;;;4.28;2.60;;;;;;;;;;5069874;28;20021;-65
2021/06/20 04:14:55;;;;;;;10.68;3.33;;;;;;;;;;5070005;28;20024;-65
2021/06/20 04:17:22;;;;;;;12.45;3.58;;;;;;;;;;5070966;28;20031;-65
2021/06/20 04:19:47;;;;;;;11.23;3.15;;;;;;;;;;5070148;28;20077;-65
2021/06/20 04:22:12;;;;;;;9.00;2.78;;;;;;;;;;5061676;28;20021;-65
2021/06/20 04:24:37;;;;;;;9.77;2.97;;;;;;;;;;5070140;28;20466;-65
2021/06/20 04:27:03;;;;;;;8.30;2.97;;;;;;;;;;5069439;28;20405;-65
2021/06/20 04:29:28;;;;;;;6.63;2.67;;;;;;;;;;5070023;28;20263;-65
2021/06/20 04:31:53;;;;;;;9.23;3.20;;;;;;;;;;5070199;28;20466;-65
2021/06/20 04:34:18;;;;;;;8.77;2.30;;;;;;;;;;5069731;28;20302;-65
2021/06/20 04:36:43;;;;;;;8.53;3.00;;;;;;;;;;5069741;28;20313;-65
2021/06/20 04:39:09;;;;;;;8.90;2.47;;;;;;;;;;5070265;28;20279;-66
2021/06/20 04:41:39;;;;;;;5.82;2.55;;;;;;;;;;5070428;28;20020;-66
2021/06/20 04:44:05;;;;;;;5.05;2.28;;;;;;;;;;5069788;28;20479;-65
2021/06/20 04:46:34;;;;;;;12.85;4.07;;;;;;;;;;5054825;28;20044;-66
2021/06/20 04:49:01;;;;;;;6.18;2.70;;;;;;;;;;5054925;28;20012;-65
2021/06/20 04:51:38;;;;;;;9.35;2.40;;;;;;;;;;5065759;28;20035;-65
2021/06/20 04:54:04;;;;;;;6.20;2.70;;;;;;;;;;5069630;28;20020;-65
2021/06/20 04:56:29;;;;;;;11.77;2.80;;;;;;;;;;5069175;28;20013;-65
2021/06/20 04:58:54;;;;;;;5.83;2.93;;;;;;;;;;5069504;28;20263;-65
2021/06/20 05:01:19;;;;;;;15.93;2.70;;;;;;;;;;5051454;28;20357;-66
2021/06/20 05:03:45;;;;;;;10.73;3.45;;;;;;;;;;5070098;28;20029;-65
2021/06/20 05:06:10;;;;;;;8.83;2.87;;;;;;;;;;5086672;22;20127;-89
2021/06/20 05:08:35;;;;;;;6.00;2.60;;;;;;;;;;5049272;28;20251;-89
2021/06/20 05:11:01;;;;;;;9.93;2.55;;;;;;;;;;5050293;28;20025;-89
2021/06/20 05:13:27;;;;;;;6.15;2.75;;;;;;;;;;5049690;28;20103;-87
2021/06/20 05:15:52;;;;;;;5.00;2.03;;;;;;;;;;5066115;23;20013;-71
2021/06/20 05:18:17;;;;;;;12.15;2.72;;;;;;;;;;5057582;28;20478;-71
2021/06/20 05:20:42;;;;;;;8.57;2.67;;;;;;;;;;5069879;28;20024;-71
2021/06/20 05:23:08;;;;;;;8.20;2.40;;;;;;;;;;5069087;28;20282;-72
2021/06/20 05:25:33;;;;;;;8.07;2.67;;;;;;;;;;5072291;28;20021;-71
2021/06/20 05:27:58;;;;;;;9.35;2.72;;;;;;;;;;5073975;28;20118;-71
2021/06/20 05:30:24;;;;;;;4.97;2.60;;;;;;;;;;5074380;28;20060;-71
2021/06/20 05:32:49;;;;;;;10.00;2.78;;;;;;;;;;5073563;28;20030;-71
2021/06/20 05:35:15;;;;;;;8.18;1.90;;;;;;;;;;5070397;28;20473;-70
2021/06/20 05:37:40;;;;;;;14.95;3.33;;;;;;;;;;5066061;28;20028;-72
2021/06/20 05:40:05;;;;;;;5.20;2.50;;;;;;;;;;5071557;28;20036;-70
2021/06/20 05:42:30;;;;;;;2.83;1.70;;;;;;;;;;5073380;28;20031;-71
2021/06/20 05:44:56;;;;;;;5.17;1.90;;;;;;;;;;5073262;28;20021;-70
2021/06/20 05:47:21;;;;;;;6.27;2.07;;;;;;;;;;5071515;28;20312;-71
2021/06/20 05:49:46;;;;;;;7.15;2.45;;;;;;;;;;5055312;28;20628;-71
2021/06/20 05:52:11;;;;;;;9.60;1.90;;;;;;;;;;5073237;28;20430;-71
2021/06/20 05:54:36;;;;;;;6.70;2.30;;;;;;;;;;5059148;28;20420;-71
2021/06/20 05:57:02;;;;;;;4.17;1.50;;;;;;;;;;5072838;28;20262;-71
2021/06/20 05:59:27;;;;;;;6.40;2.22;;;;;;;;;;5073566;28;20263;-71
2021/06/20 06:01:52;;;;;;;7.53;2.10;;;;;;;;;;5073553;28;20021;-71
2021/06/20 06:04:17;;;;;;;9.97;2.07;;;;;;;;;;5072194;28;20107;-71
2021/06/20 06:06:42;;;;;;;14.97;1.90;;;;;;;;;;5051762;28;20103;-71
2021/06/20 06:09:08;;;;;;;6.07;2.00;;;;;;;;;;5072437;28;20274;-71
2021/06/20 06:11:33;;;;;;;9.63;2.20;;;;;;;;;;5072990;28;20402;-71
2021/06/20 06:13:58;;;;;;;4.47;2.50;;;;;;;;;;5072834;28;20359;-71
2021/06/20 06:16:23;;;;;;;4.63;1.60;;;;;;;;;;5071540;28;20262;-71
2021/06/20 06:18:48;;;;;;;5.37;1.80;;;;;;;;;;5071664;28;20634;-71
2021/06/20 06:21:13;;;;;;;4.67;2.30;;;;;;;;;;5072326;28;20279;-72
2021/06/20 06:23:39;;;;;;;6.07;1.93;;;;;;;;;;5072987;28;20262;-71
2021/06/20 06:26:04;;;;;;;6.60;2.28;;;;;;;;;;5053696;28;20285;-71
2021/06/20 06:28:29;;;;;;;6.97;2.00;;;;;;;;;;5072864;28;20022;-71
2021/06/20 06:30:54;;;;;;;8.27;2.27;;;;;;;;;;5054325;28;20028;-71
2021/06/20 06:33:21;;;;;;;3.03;1.50;;;;;;;;;;5072808;28;20286;-71
2021/06/20 06:35:46;;;;;;;5.03;1.77;;;;;;;;;;5071982;28;20103;-72
2021/06/20 06:38:11;;;;;;;17.42;3.95;;;;;;;;;;5072645;28;20179;-67
2021/06/20 06:40:37;;;;;;;7.07;1.77;;;;;;;;;;5071856;28;20433;-72
2021/06/20 06:43:02;;;;;;;5.30;1.70;;;;;;;;;;5071047;28;20309;-71
2021/06/20 06:45:27;;;;;;;8.88;2.35;;;;;;;;;;5049631;28;20017;-72
2021/06/20 06:47:52;;;;;;;5.30;2.13;;;;;;;;;;5069573;28;20020;-71
2021/06/20 06:50:18;;;;;;;6.93;2.20;;;;;;;;;;5066203;28;20687;-72
2021/06/20 06:52:44;;;;;;;7.32;1.70;;;;;;;;;;5067068;28;20052;-71
2021/06/20 06:55:10;;;;;;;2.90;1.10;;;;;;;;;;5068631;28;20343;-71
2021/06/20 06:57:35;;;;;;;7.30;2.35;;;;;;;;;;5069518;28;20479;-72
2021/06/20 07:00:02;;;;;;;8.73;2.08;;;;;;;;;;5069926;28;20078;-71
2021/06/20 07:02:27;;;;;;;2.63;1.70;;;;;;;;;;5070275;28;20040;-72
2021/06/20 07:04:52;;;;;;;4.13;1.57;;;;;;;;;;5070104;28;20028;-71
2021/06/20 07:07:17;;;;;;;5.05;1.75;;;;;;;;;;5051397;28;20255;-71
2021/06/20 07:09:43;;;;;;;7.68;2.13;;;;;;;;;;5052352;28;20035;-72
2021/06/20 07:12:08;;;;;;;2.93;1.60;;;;;;;;;;5069780;28;20039;-71
2021/06/20 07:14:36;;;;;;;4.18;1.65;;;;;;;;;;5051196;28;20067;-72
2021/06/20 07:17:02;;;;;;;6.25;1.90;;;;;;;;;;5068837;28;20035;-71
2021/06/20 07:19:28;;;;;;;3.10;1.38;;;;;;;;;;5069547;28;20020;-71
2021/06/20 07:21:53;;;;;;;3.63;1.40;;;;;;;;;;5069262;28;20041;-71
2021/06/20 07:24:18;;;;;;;3.72;1.08;;;;;;;;;;5069339;28;20028;-72
2021/06/20 07:26:43;;;;;;;7.77;2.00;;;;;;;;;;5069008;28;20060;-71
2021/06/20 07:29:08;;;;;;;8.87;1.33;;;;;;;;;;5070043;28;20259;-71
2021/06/20 07:31:34;;;;;;;8.90;2.03;;;;;;;;;;5070361;28;20255;-71
2021/06/20 07:33:59;;;;;;;3.30;1.50;;;;;;;;;;5069209;28;20274;-71
2021/06/20 07:36:24;;;;;;;6.35;1.92;;;;;;;;;;5068069;28;20017;-72
2021/06/20 07:38:49;;;;;;;1.98;1.15;;;;;;;;;;5068383;28;20335;-71
2021/06/20 07:41:15;;;;;;;6.23;1.57;;;;;;;;;;5063517;28;20116;-71
2021/06/20 07:43:40;;;;;;;2.88;1.23;;;;;;;;;;5032296;28;20483;-71
2021/06/20 07:46:05;;;;;;;4.20;1.13;;;;;;;;;;5062740;28;20070;-72
2021/06/20 07:48:31;;;;;;;5.82;2.13;;;;;;;;;;5068100;28;20320;-72
2021/06/20 07:50:57;;;;;;;2.70;1.45;;;;;;;;;;5068973;28;20360;-72
2021/06/20 07:53:22;;;;;;;3.22;1.48;;;;;;;;;;5068199;28;20037;-72
2021/06/20 07:55:47;;;;;;;1.83;0.98;;;;;;;;;;5068556;28;20024;-71
2021/06/20 07:58:12;;;;;;;3.10;1.38;;;;;;;;;;5068470;28;20072;-71
2021/06/20 08:00:38;;;;;;;6.50;2.13;;;;;;;;;;5068767;28;20024;-71
2021/06/20 08:03:03;;;;;;;6.18;1.45;;;;;;;;;;5061507;28;20274;-74
2021/06/20 08:05:28;;;;;;;3.50;1.20;;;;;;;;;;5067622;28;20044;-74
2021/06/20 08:07:53;;;;;;;4.67;1.40;;;;;;;;;;5064568;28;20020;-75
2021/06/20 08:10:19;;;;;;;13.90;1.30;;;;;;;;;;5068431;28;20283;-75
2021/06/20 08:12:44;;;;;;;2.83;1.25;;;;;;;;;;5070833;28;20270;-74
2021/06/20 08:15:09;;;;;;;2.22;1.60;;;;;;;;;;5070488;28;20042;-74
2021/06/20 08:17:35;;;;;;;5.90;1.23;;;;;;;;;;5051803;28;20032;-74
2021/06/20 08:20:00;;;;;;;4.43;0.63;;;;;;;;;;5071381;28;20028;-75
2021/06/20 08:22:26;;;;;;;17.45;1.38;;;;;;;;;;5070924;28;20251;-75
2021/06/20 08:24:51;;;;;;;4.43;1.40;;;;;;;;;;5050142;28;20046;-74
2021/06/20 08:27:16;;;;;;;4.67;1.50;;;;;;;;;;5069753;28;20035;-75
2021/06/20 08:29:42;;;;;;;2.60;1.50;;;;;;;;;;5070277;28;20016;-74
2021/06/20 08:32:07;;;;;;;2.30;0.98;;;;;;;;;;5070156;28;20025;-75
2021/06/20 08:34:33;;;;;;;1.17;0.82;;;;;;;;;;5070650;28;20462;-76
2021/06/20 08:37:00;;;;;;;3.75;1.40;;;;;;;;;;5069187;28;20363;-75
2021/06/20 08:39:26;;;;;;;2.05;0.88;;;;;;;;;;5049509;28;20036;-75
2021/06/20 08:41:52;;;;;;;6.00;1.60;;;;;;;;;;5068382;28;20528;-75
2021/06/20 08:44:18;;;;;;;1.95;1.13;;;;;;;;;;5066299;28;20059;-75
2021/06/20 08:46:44;;;;;;;6.47;1.35;;;;;;;;;;5068316;28;20025;-74
2021/06/20 08:49:09;;;;;;;1.55;1.10;;;;;;;;;;5067880;28;20470;-76
2021/06/20 08:51:34;;;;;;;2.92;1.20;;;;;;;;;;5068257;28;20028;-75
2021/06/20 08:54:00;;;;;;;3.72;1.60;;;;;;;;;;5067762;28;20093;-75
2021/06/20 08:56:25;;;;;;;4.30;1.43;;;;;;;;;;5067904;28;20398;-75
2021/06/20 08:58:51;;;;;;;2.30;1.42;;;;;;;;;;5046018;28;20082;-75
2021/06/20 09:01:16;;;;;;;2.80;1.25;;;;;;;;;;5066228;28;20090;-75
2021/06/20 09:03:45;;;;;;;2.63;1.00;;;;;;;;;;5068030;28;20462;-75
2021/06/20 09:06:15;;;;;;;3.50;1.10;;;;;;;;;;5065787;28;20314;-75
2021/06/20 09:08:44;;;;;;;4.45;1.33;;;;;;;;;;5063056;28;20459;-75
2021/06/20 09:11:20;;;;;;;5.80;1.80;;;;;;;;;;5066574;28;20032;-74
2021/06/20 09:13:45;;;;;;;3.45;0.98;;;;;;;;;;5054830;28;20024;-74
2021/06/20 09:16:11;;;;;;;2.40;1.23;;;;;;;;;;5068993;28;20520;-74
2021/06/20 09:18:36;;;;;;;4.50;1.20;;;;;;;;;;5069922;28;20267;-74
2021/06/20 09:21:07;;;;;;;1.87;1.00;;;;;;;;;;5070127;28;20418;-74
2021/06/20 09:23:38;;;;;;;1.58;1.10;;;;;;;;;;5069872;28;20081;-74
2021/06/20 09:26:03;;;;;;;11.02;1.70;;;;;;;;;;5068485;28;20023;-74
2021/06/20 09:28:33;;;;;;;3.17;1.20;;;;;;;;;;5052101;28;20017;-74
2021/06/20 09:30:59;;;;;;;3.17;1.10;;;;;;;;;;5049135;28;20021;-74
2021/06/20 09:33:29;;;;;;;8.05;2.15;;;;;;;;;;5053866;28;20024;-75
2021/06/20 09:35:57;;;;;;;3.78;1.00;;;;;;;;;;5069666;28;20017;-73
2021/06/20 09:38:22;;;;;;;3.63;1.23;;;;;;;;;;5068448;28;20028;-75
2021/06/20 09:40:47;;;;;;;5.20;1.07;;;;;;;;;;5069630;28;20017;-75
2021/06/20 09:43:17;;;;;;;1.88;1.05;;;;;;;;;;5069350;28;20620;-74
2021/06/20 09:45:46;;;;;;;3.45;1.08;;;;;;;;;;5069911;28;20039;-75
2021/06/20 09:48:22;;;;;;;3.92;1.00;;;;;;;;;;5051540;28;20486;-74
2021/06/20 09:50:47;;;;;;;1.48;0.93;;;;;;;;;;5070109;28;20377;-75
2021/06/20 09:53:12;;;;;;;4.68;1.67;;;;;;;;;;5069510;28;20100;-75
2021/06/20 09:55:38;;;;;;;4.17;1.13;;;;;;;;;;5069294;28;20040;-75
2021/06/20 09:58:03;;;;;;;1.75;0.90;;;;;;;;;;5070166;28;20082;-75
2021/06/20 10:00:36;;;;;;;4.60;1.02;;;;;;;;;;5051968;28;20035;-74
2021/06/20 10:03:03;;;;;;;2.38;1.00;;;;;;;;;;5069324;28;20417;-75
2021/06/20 10:05:28;;;;;;;3.17;1.00;;;;;;;;;;5069040;28;20025;-74
2021/06/20 10:07:54;;;;;;;4.75;1.10;;;;;;;;;;5033362;28;20463;-74
2021/06/20 10:10:19;;;;;;;1.23;0.82;;;;;;;;;;5035479;28;20411;-74
2021/06/20 10:12:44;;;;;;;5.05;1.30;;;;;;;;;;5072399;28;20447;-74
2021/06/20 10:15:11;;;;;;;4.63;1.23;;;;;;;;;;5054594;28;20078;-74
2021/06/20 10:17:38;;;;;;;5.25;1.08;;;;;;;;;;5072517;28;20475;-75
2021/06/20 10:20:07;;;;;;;2.15;1.10;;;;;;;;;;5072153;28;20052;-75
2021/06/20 10:22:36;;;;;;;3.50;1.00;;;;;;;;;;5071974;28;20020;-76
2021/06/20 10:25:03;;;;;;;3.67;0.95;;;;;;;;;;5072503;28;20536;-75
2021/06/20 10:27:37;;;;;;;1.92;1.25;;;;;;;;;;5074635;28;20029;-75
2021/06/20 10:30:04;;;;;;;2.70;1.13;;;;;;;;;;5072697;28;20020;-75
2021/06/20 10:32:41;;;;;;;3.70;0.80;;;;;;;;;;5073239;28;20692;-75
2021/06/20 10:35:14;;;;;;;2.53;1.10;;;;;;;;;;5053934;28;20085;-76
2021/06/20 10:37:39;;;;;;;1.60;0.90;;;;;;;;;;5072909;28;20069;-75
2021/06/20 10:40:23;;;;;;;1.60;1.00;;;;;;;;;;5072499;28;20024;-76
2021/06/20 10:42:50;;;;;;;3.38;1.23;;;;;;;;;;5072849;28;20017;-76
2021/06/20 10:45:25;;;;;;;1.92;1.20;;;;;;;;;;5071952;28;20023;-75
2021/06/20 10:47:51;;;;;;;2.97;1.63;;;;;;;;;;5054978;28;20029;-75
2021/06/20 10:50:16;;;;;;;3.23;1.30;;;;;;;;;;5070982;28;20029;-75
2021/06/20 10:52:53;;;;;;;5.82;1.20;;;;;;;;;;5072637;28;20021;-75
2021/06/20 10:55:19;;;;;;;3.08;1.30;;;;;;;;;;5072658;28;20493;-76
2021/06/20 10:57:45;;;;;;;1.20;0.90;;;;;;;;;;5072279;28;20020;-76
2021/06/20 11:00:11;;;;;;;3.67;1.20;;;;;;;;;;5072383;28;20474;-76
2021/06/20 11:02:36;;;;;;;4.88;1.58;;;;;;;;;;5072139;28;20032;-76
2021/06/20 11:05:03;;;;;;;4.80;1.30;;;;;;;;;;5071257;28;20023;-76
2021/06/20 11:07:29;;;;;;;2.72;1.00;;;;;;;;;;5072389;28;20251;-76
2021/06/20 11:09:57;;;;;;;2.17;1.13;;;;;;;;;;5071944;28;20471;-76
2021/06/20 11:12:23;;;;;;;1.77;1.05;;;;;;;;;;5072365;28;20028;-75
2021/06/20 11:14:49;;;;;;;3.28;1.38;;;;;;;;;;5053769;28;20494;-76
2021/06/20 11:17:14;;;;;;;3.33;1.00;;;;;;;;;;5080574;22;20506;-69
2021/06/20 11:19:40;;;;;;;2.00;1.10;;;;;;;;;;5043653;28;20035;-69
2021/06/20 11:22:06;;;;;;;4.57;1.00;;;;;;;;;;5051056;28;20451;-69
2021/06/20 11:24:34;;;;;;;0.93;0.70;;;;;;;;;;5042078;28;20025;-69
2021/06/20 11:27:02;;;;;;;1.58;0.68;;;;;;;;;;5032152;28;20025;-70
2021/06/20 11:29:37;;;;;;;0.93;0.88;;;;;;;;;;5035549;28;20037;-69
2021/06/20 11:32:03;;;;;;;3.30;0.70;;;;;;;;;;5052000;28;20021;-68
2021/06/20 11:34:29;;;;;;;2.42;0.88;;;;;;;;;;5051879;28;20024;-69
2021/06/20 11:36:54;;;;;;;1.38;0.90;;;;;;;;;;5050920;28;20541;-69
2021/06/20 11:39:19;;;;;;;2.70;0.90;;;;;;;;;;5048577;28;20056;-69
2021/06/20 11:41:46;;;;;;;1.43;0.80;;;;;;;;;;5051837;28;20322;-70
2021/06/20 11:44:13;;;;;;;2.97;0.93;;;;;;;;;;5051313;28;20113;-68
2021/06/20 11:46:42;;;;;;;2.72;1.10;;;;;;;;;;5050900;28;20036;-69
2021/06/20 11:49:07;;;;;;;0.85;0.75;;;;;;;;;;5044827;28;20017;-70
2021/06/20 11:51:41;;;;;;;1.95;0.60;;;;;;;;;;5031975;28;20017;-70
2021/06/20 11:54:09;;;;;;;5.95;1.35;;;;;;;;;;5044558;28;20037;-68
2021/06/20 11:56:34;;;;;;;2.50;1.20;;;;;;;;;;5051366;28;20025;-69
2021/06/20 11:58:59;;;;;;;2.40;1.10;;;;;;;;;;5051668;28;20519;-69
2021/06/20 12:01:35;;;;;;;0.82;0.57;;;;;;;;;;5050894;28;20024;-69
2021/06/20 12:04:01;;;;;;;1.95;1.35;;;;;;;;;;5051595;28;20107;-69
2021/06/20 12:06:26;;;;;;;2.45;0.80;;;;;;;;;;5050890;28;20158;-69
2021/06/20 12:08:52;;;;;;;4.50;0.90;;;;;;;;;;5051256;28;20107;-69
2021/06/20 12:11:27;;;;;;;4.87;1.00;;;;;;;;;;5033199;28;20020;-69
2021/06/20 12:13:52;;;;;;;2.15;1.00;;;;;;;;;;5031255;28;20271;-68
2021/06/20 12:16:17;;;;;;;4.50;1.00;;;;;;;;;;5042644;28;20025;-68
2021/06/20 12:18:42;;;;;;;3.43;0.90;;;;;;;;;;5071023;28;20650;-69
2021/06/20 12:21:08;;;;;;;3.47;1.40;;;;;;;;;;5071055;28;20066;-69
2021/06/20 12:23:34;;;;;;;1.87;0.90;;;;;;;;;;5066123;28;20325;-69
2021/06/20 12:26:00;;;;;;;4.78;1.20;;;;;;;;;;5050443;28;20256;-69
2021/06/20 12:28:25;;;;;;;1.88;1.15;;;;;;;;;;5052867;28;20062;-69
2021/06/20 12:30:51;;;;;;;1.23;1.00;;;;;;;;;;5060558;28;20021;-70
2021/06/20 12:33:18;;;;;;;2.50;1.35;;;;;;;;;;5058300;28;20689;-68
2021/06/20 12:35:46;;;;;;;2.95;0.88;;;;;;;;;;5052659;28;20028;-68
2021/06/20 12:38:15;;;;;;;1.75;0.90;;;;;;;;;;5070955;28;20016;-69
2021/06/20 12:40:40;;;;;;;4.10;1.00;;;;;;;;;;5064727;28;20032;-69
2021/06/20 12:43:05;;;;;;;4.43;1.03;;;;;;;;;;5051793;28;20021;-69
2021/06/20 12:45:35;;;;;;;2.75;0.82;;;;;;;;;;5056101;28;20254;-69
2021/06/20 12:48:14;;;;;;;3.10;0.93;;;;;;;;;;5070103;28;20052;-69
2021/06/20 12:50:39;;;;;;;7.90;2.00;;;;;;;;;;5070610;28;20028;-69
2021/06/20 12:53:04;;;;;;;3.88;1.08;;;;;;;;;;5070962;28;20374;-69
2021/06/20 12:55:31;;;;;;;2.67;1.00;;;;;;;;;;5065527;28;20078;-68
2021/06/20 12:57:57;;;;;;;4.22;0.90;;;;;;;;;;5052720;28;20047;-68
2021/06/20 13:00:27;;;;;;;2.88;1.10;;;;;;;;;;5059999;28;20035;-68
2021/06/20 13:02:56;;;;;;;4.70;1.50;;;;;;;;;;5053440;28;20494;-68
2021/06/20 13:05:28;;;;;;;1.90;1.10;;;;;;;;;;5069481;28;20025;-69
2021/06/20 13:07:53;;;;;;;1.75;1.05;;;;;;;;;;5069827;28;20021;-70
2021/06/20 13:10:18;;;;;;;3.53;0.90;;;;;;;;;;5069733;28;20036;-68
2021/06/20 13:12:43;;;;;;;4.77;1.23;;;;;;;;;;5069509;28;20258;-69
2021/06/20 13:15:10;;;;;;;6.77;1.73;;;;;;;;;;5070064;28;20020;-69
2021/06/20 13:17:36;;;;;;;3.75;1.13;;;;;;;;;;5069390;28;20036;-69
2021/06/20 13:20:01;;;;;;;4.38;2.28;;;;;;;;;;5069380;28;20176;-69
2021/06/20 13:22:26;;;;;;;2.38;1.40;;;;;;;;;;5070098;28;20029;-68
2021/06/20 13:24:52;;;;;;;4.72;1.17;;;;;;;;;;5051055;28;20386;-69
2021/06/20 13:27:18;;;;;;;2.10;1.10;;;;;;;;;;5052830;28;20108;-69
2021/06/20 13:29:43;;;;;;;4.30;0.90;;;;;;;;;;5062256;28;20092;-67
2021/06/20 13:32:08;;;;;;;4.32;1.20;;;;;;;;;;5069977;28;20105;-69
2021/06/20 13:34:33;;;;;;;4.18;1.40;;;;;;;;;;5064736;28;20025;-67
2021/06/20 13:36:59;;;;;;;3.05;1.60;;;;;;;;;;5058881;28;20035;-69
2021/06/20 13:39:24;;;;;;;3.17;0.73;;;;;;;;;;5068478;28;20058;-69
2021/06/20 13:41:49;;;;;;;1.63;1.17;;;;;;;;;;5061002;28;20113;-67
2021/06/20 13:44:14;;;;;;;1.70;0.90;;;;;;;;;;5063870;28;20266;-68
2021/06/20 13:46:40;;;;;;;2.57;1.20;;;;;;;;;;5071763;28;20017;-67
2021/06/20 13:49:05;;;;;;;2.42;1.50;;;;;;;;;;5073822;28;20024;-68
2021/06/20 13:51:30;;;;;;;1.17;0.97;;;;;;;;;;5073863;28;20471;-68
2021/06/20 13:53:55;;;;;;;1.00;0.70;;;;;;;;;;5073556;28;20302;-68
2021/06/20 13:56:20;;;;;;;2.37;0.80;;;;;;;;;;5073339;28;20025;-68
2021/06/20 13:58:45;;;;;;;6.07;1.13;;;;;;;;;;5060851;28;20452;-68
2021/06/20 14:01:11;;;;;;;10.00;1.27;;;;;;;;;;5068762;28;20028;-68
2021/06/20 14:03:36;;;;;;;3.72;1.00;;;;;;;;;;5063182;28;20283;-68
2021/06/20 14:06:01;;;;;;;4.93;1.97;;;;;;;;;;5068139;28;20103;-69
2021/06/20 14:08:27;;;;;;;1.77;1.40;;;;;;;;;;5071637;28;20050;-68
2021/06/20 14:10:52;;;;;;;3.95;1.20;;;;;;;;;;5082198;28;20274;-68
2021/06/20 14:13:17;;;;;;;1.92;1.38;;;;;;;;;;5071952;28;20048;-70
2021/06/20 14:15:42;;;;;;;2.63;1.58;;;;;;;;;;5074230;28;20035;-70
2021/06/20 14:18:09;;;;;;;4.07;1.80;;;;;;;;;;5070565;28;20026;-69
2021/06/20 14:20:34;;;;;;;3.42;1.70;;;;;;;;;;5070221;28;20290;-69
2021/06/20 14:22:59;;;;;;;2.92;1.10;;;;;;;;;;5072574;28;20545;-68
2021/06/20 14:25:25;;;;;;;3.43;1.00;;;;;;;;;;5072531;28;20115;-69
2021/06/20 14:27:50;;;;;;;5.90;2.35;;;;;;;;;;5071921;28;20255;-69
2021/06/20 14:30:15;;;;;;;2.90;1.63;;;;;;;;;;5072939;28;20016;-70
2021/06/20 14:32:41;;;;;;;4.72;1.60;;;;;;;;;;5072408;28;20262;-70
2021/06/20 14:35:07;;;;;;;2.58;1.42;;;;;;;;;;5072060;28;20669;-69